createdAt,value
2018-03-04T00:00:13.709Z,-9.50
2018-03-04T00:04:56.968Z,-9.50
2018-03-04T00:09:41.202Z,-9.60
2018-03-04T00:14:24.652Z,-9.60
2018-03-04T00:19:08.298Z,-9.40
2018-03-04T00:23:52.750Z,-8.90
2018-03-04T00:28:36.316Z,-8.90
2018-03-04T00:33:19.986Z,-8.80
2018-03-04T00:38:03.395Z,-8.80
2018-03-04T00:42:47.041Z,-8.90
2018-03-04T00:47:31.623Z,-8.90
2018-03-04T00:52:15.082Z,-8.90
2018-03-04T00:57:01.572Z,-8.80
2018-03-04T01:01:47.621Z,-8.80
2018-03-04T01:06:32.022Z,-8.70
2018-03-04T01:11:17.454Z,-8.70
2018-03-04T01:16:00.917Z,-8.70
2018-03-04T01:20:47.767Z,-8.60
2018-03-04T01:25:31.248Z,-8.70
2018-03-04T01:30:14.603Z,-8.70
2018-03-04T01:34:58.704Z,-8.90
2018-03-04T01:39:42.048Z,-8.90
2018-03-04T01:44:25.434Z,-8.70
2018-03-04T01:49:08.742Z,-8.60
2018-03-04T01:53:52.142Z,-8.60
2018-03-04T01:58:35.545Z,-8.60
2018-03-04T02:03:18.875Z,-8.60
2018-03-04T02:08:02.215Z,-8.50
2018-03-04T02:12:45.565Z,-8.50
2018-03-04T02:17:28.900Z,-8.60
2018-03-04T02:22:12.231Z,-8.60
2018-03-04T02:26:55.578Z,-8.50
2018-03-04T02:31:38.942Z,-8.30
2018-03-04T02:36:22.324Z,-8.20
2018-03-04T02:41:05.905Z,-8.10
2018-03-04T02:45:49.279Z,-8.00
2018-03-04T02:50:34.008Z,-8.00
2018-03-04T02:55:17.732Z,-8.00
2018-03-04T03:00:01.128Z,-8.00
2018-03-04T03:04:44.473Z,-8.10
2018-03-04T03:09:27.890Z,-8.10
2018-03-04T03:14:11.278Z,-8.00
2018-03-04T03:18:54.722Z,-8.10
2018-03-04T03:23:38.124Z,-8.10
2018-03-04T03:28:21.560Z,-7.90
2018-03-04T03:33:04.872Z,-7.90
2018-03-04T03:37:48.271Z,-7.90
2018-03-04T03:42:32.383Z,-7.60
2018-03-04T03:47:15.718Z,-7.60
2018-03-04T03:51:59.106Z,-7.60
2018-03-04T03:56:43.179Z,-7.60
2018-03-04T04:01:27.326Z,-7.70
2018-03-04T04:06:11.448Z,-7.70
2018-03-04T04:10:54.787Z,-7.70
2018-03-04T04:15:38.186Z,-7.70
2018-03-04T04:20:21.550Z,-7.70
2018-03-04T04:25:04.864Z,-7.60
2018-03-04T04:29:48.239Z,-7.50
2018-03-04T04:34:31.584Z,-7.40
2018-03-04T04:39:14.946Z,-7.30
2018-03-04T04:43:58.401Z,-7.20
2018-03-04T04:48:42.513Z,-7.20
2018-03-04T04:53:25.814Z,-7.20
2018-03-04T04:58:09.963Z,-7.10
2018-03-04T05:02:54.106Z,-7.10
2018-03-04T05:07:37.450Z,-7.20
2018-03-04T05:12:20.825Z,-7.10
2018-03-04T05:17:04.959Z,-7.10
2018-03-04T05:21:48.294Z,-7.10
2018-03-04T05:26:31.675Z,-7.20
2018-03-04T05:31:15.022Z,-7.10
2018-03-04T05:35:58.400Z,-7.10
2018-03-04T05:40:41.732Z,-7.20
2018-03-04T05:45:25.093Z,-7.20
2018-03-04T05:50:08.412Z,-7.20
2018-03-04T05:54:51.766Z,-7.20
2018-03-04T05:59:35.107Z,-7.10
2018-03-04T06:04:18.688Z,-7.10
2018-03-04T06:09:02.741Z,-6.90
2018-03-04T06:13:47.030Z,-6.90
2018-03-04T06:18:30.349Z,-6.70
2018-03-04T06:23:13.678Z,-6.70
2018-03-04T06:27:57.780Z,-6.60
2018-03-04T06:32:41.145Z,-6.60
2018-03-04T06:37:24.703Z,-6.50
2018-03-04T06:42:08.029Z,-6.40
2018-03-04T06:46:51.391Z,-6.30
2018-03-04T06:51:34.825Z,-6.20
2018-03-04T06:56:18.181Z,-6.10
2018-03-04T07:01:02.245Z,-5.60
2018-03-04T07:05:46.381Z,-5.40
2018-03-04T07:10:29.886Z,-5.40
2018-03-04T07:15:13.267Z,-5.20
2018-03-04T07:19:57.492Z,-5.00
2018-03-04T07:24:40.926Z,-5.10
2018-03-04T07:29:24.281Z,-5.00
2018-03-04T07:34:07.670Z,-4.70
2018-03-04T07:38:51.838Z,-4.40
2018-03-04T07:43:46.546Z,-4.10
2018-03-04T07:48:30.456Z,-4.10
2018-03-04T07:53:14.681Z,-3.70
2018-03-04T07:57:59.389Z,-3.40
2018-03-04T08:02:42.698Z,-3.30
2018-03-04T08:07:26.030Z,-3.20
2018-03-04T08:12:09.389Z,-3.00
2018-03-04T08:16:52.767Z,-2.60
2018-03-04T08:21:36.210Z,-2.10
2018-03-04T08:31:24.593Z,-1.20
2018-03-04T08:36:08.036Z,-1.20
2018-03-04T08:40:52.357Z,-1.00
2018-03-04T08:45:35.753Z,-0.90
2018-03-04T08:50:20.299Z,-0.80
2018-03-04T08:55:03.674Z,-0.40
2018-03-04T09:09:23.805Z,0.70
2018-03-04T09:14:07.630Z,0.60
2018-03-04T09:18:51.337Z,0.90
2018-03-04T09:23:35.034Z,1.20
2018-03-04T09:28:18.417Z,1.50
2018-03-04T09:33:01.866Z,1.90
2018-03-04T09:42:35.460Z,2.60
2018-03-04T09:47:18.796Z,2.90
2018-03-04T09:52:02.168Z,2.90
2018-03-04T09:56:45.589Z,3.10
2018-03-04T10:01:29.040Z,3.20
2018-03-04T10:06:12.421Z,3.20
2018-03-04T10:10:56.508Z,3.40
2018-03-04T10:15:39.852Z,3.40
2018-03-04T10:20:23.635Z,3.50
2018-03-04T10:25:07.871Z,4.00
2018-03-04T10:29:51.215Z,4.50
2018-03-04T10:34:35.268Z,5.00
2018-03-04T10:39:18.611Z,5.40
2018-03-04T10:44:01.947Z,5.80
2018-03-04T10:48:45.331Z,6.40
2018-03-04T10:53:29.600Z,7.50
2018-03-04T10:58:13.735Z,7.70
2018-03-04T11:02:59.237Z,7.60
2018-03-04T11:07:42.628Z,7.80
2018-03-04T11:12:26.078Z,7.20
2018-03-04T11:17:09.648Z,7.20
2018-03-04T11:21:53.917Z,7.40
2018-03-04T11:26:38.159Z,7.60
2018-03-04T11:31:23.404Z,8.00
2018-03-04T11:36:10.485Z,8.00
2018-03-04T11:40:54.723Z,8.40
2018-03-04T11:45:38.960Z,8.30
2018-03-04T11:50:23.185Z,8.80
2018-03-04T11:55:06.751Z,8.80
2018-03-04T11:59:51.074Z,9.50
2018-03-04T12:04:43.786Z,9.30
2018-03-04T12:09:27.530Z,9.00
2018-03-04T12:14:11.797Z,8.90
2018-03-04T12:18:55.193Z,8.90
2018-03-04T12:23:38.640Z,9.00
2018-03-04T12:28:30.875Z,8.80
2018-03-04T12:33:14.307Z,8.90
2018-03-04T12:37:58.639Z,8.70
2018-03-04T12:42:43.184Z,8.90
2018-03-04T12:47:27.360Z,9.10
2018-03-04T12:52:10.732Z,9.10
2018-03-04T12:56:54.107Z,9.10
2018-03-04T13:01:37.516Z,9.00
2018-03-04T13:06:20.905Z,8.80
2018-03-04T13:11:17.639Z,8.60
2018-03-04T13:16:01.087Z,8.60
2018-03-04T13:20:45.345Z,8.80
2018-03-04T13:25:28.846Z,8.80
2018-03-04T13:30:12.368Z,8.60
2018-03-04T13:34:56.125Z,8.30
2018-03-04T13:39:41.768Z,8.30
2018-03-04T13:44:44.984Z,8.10
2018-03-04T13:49:29.381Z,7.60
2018-03-04T13:54:12.819Z,7.60
2018-03-04T13:58:57.014Z,7.70
2018-03-04T14:03:40.692Z,7.60
2018-03-04T14:08:24.100Z,7.70
2018-03-04T14:13:08.927Z,7.60
2018-03-04T14:17:54.185Z,7.60
2018-03-04T14:22:37.681Z,7.40
2018-03-04T14:27:21.790Z,7.20
2018-03-04T14:32:05.181Z,6.90
2018-03-04T14:36:48.601Z,6.80
2018-03-04T14:41:32.855Z,6.80
2018-03-04T14:46:17.166Z,6.70
2018-03-04T14:51:01.428Z,6.60
2018-03-04T14:55:44.855Z,6.50
2018-03-04T15:00:28.993Z,6.40
2018-03-04T15:05:14.064Z,6.40
2018-03-04T15:09:58.187Z,6.00
2018-03-04T15:14:42.372Z,6.00
2018-03-04T15:19:26.688Z,5.80
2018-03-04T15:24:10.149Z,5.70
2018-03-04T15:28:53.542Z,5.50
2018-03-04T15:33:37.782Z,5.30
2018-03-04T15:38:21.144Z,5.20
2018-03-04T15:43:06.229Z,4.80
2018-03-04T15:47:50.454Z,4.40
2018-03-04T15:52:34.655Z,4.00
2018-03-04T15:57:18.215Z,4.00
2018-03-04T16:02:02.376Z,3.20
2018-03-04T16:06:45.796Z,3.20
2018-03-04T16:11:29.158Z,3.00
2018-03-04T16:16:12.609Z,2.70
2018-03-04T16:20:56.068Z,2.30
2018-03-04T16:25:39.584Z,2.00
2018-03-04T16:30:23.016Z,1.80
2018-03-04T16:35:07.345Z,1.10
2018-03-04T16:39:50.836Z,1.10
2018-03-04T16:44:34.253Z,0.70
2018-03-04T16:49:17.797Z,0.50
2018-03-04T16:54:02.057Z,0.30
2018-03-04T16:58:47.767Z,0.20
2018-03-04T17:03:40.106Z,0.00
2018-03-04T17:08:23.940Z,-0.20
2018-03-04T17:13:08.434Z,-0.50
2018-03-04T17:17:52.598Z,-0.50
2018-03-04T17:22:38.308Z,-0.80
2018-03-04T17:27:23.160Z,-0.80
2018-03-04T17:32:08.230Z,-0.80
2018-03-04T17:36:53.254Z,-1.00
2018-03-04T17:41:38.126Z,-1.20
2018-03-04T17:46:21.865Z,-1.30
2018-03-04T17:56:03.486Z,-1.40
2018-03-04T18:00:47.091Z,-1.40
2018-03-04T18:05:31.447Z,-1.50
2018-03-04T18:10:15.513Z,-1.50
2018-03-04T18:14:59.901Z,-1.60
2018-03-04T18:19:43.718Z,-1.60
2018-03-04T18:24:28.315Z,-1.70
2018-03-04T18:29:12.013Z,-1.90
2018-03-04T18:33:55.644Z,-2.00
2018-03-04T18:38:40.292Z,-2.10
2018-03-04T18:43:24.671Z,-2.10
2018-03-04T18:48:08.832Z,-2.00
2018-03-04T18:52:52.333Z,-2.10
2018-03-04T18:57:42.245Z,-2.20
2018-03-04T19:02:34.811Z,-2.30
2018-03-04T19:07:18.530Z,-2.30
2018-03-04T19:12:02.324Z,-2.20
2018-03-04T19:16:46.636Z,-2.20
2018-03-04T19:21:32.339Z,-2.10
2018-03-04T19:26:16.290Z,-2.20
2018-03-04T19:31:01.087Z,-2.20
2018-03-04T19:35:44.706Z,-2.40
2018-03-04T19:40:28.400Z,-2.40
2018-03-04T19:45:13.052Z,-2.60
2018-03-04T19:49:58.011Z,-2.60
2018-03-04T19:54:42.260Z,-2.50
2018-03-04T19:59:25.829Z,-2.50
2018-03-04T20:04:09.490Z,-2.40
2018-03-04T20:08:53.384Z,-2.40
2018-03-04T20:13:37.213Z,-2.40
2018-03-04T20:18:20.980Z,-2.30
2018-03-04T20:23:04.504Z,-2.10
2018-03-04T20:27:48.310Z,-1.70
2018-03-04T20:32:31.997Z,-1.70
2018-03-04T20:37:18.277Z,-1.70
2018-03-04T20:42:01.959Z,-2.00
2018-03-04T20:46:46.228Z,-2.10
2018-03-04T20:51:31.258Z,-2.20
2018-03-04T20:56:17.886Z,-2.20
2018-03-04T21:01:03.201Z,-2.20
2018-03-04T21:05:46.711Z,-2.20
2018-03-04T21:10:30.518Z,-2.00
2018-03-04T21:15:15.509Z,-2.20
2018-03-04T21:19:59.171Z,-2.20
2018-03-04T21:24:42.687Z,-2.20
2018-03-04T21:29:27.041Z,-2.10
2018-03-04T21:34:11.409Z,-1.90
2018-03-04T21:39:14.194Z,-1.70
2018-03-04T21:54:14.939Z,-2.30
2018-03-04T21:59:09.647Z,-2.20
2018-03-04T22:03:58.555Z,-2.30
2018-03-04T22:08:46.207Z,-2.40
2018-03-04T22:13:37.458Z,-2.50
2018-03-04T22:18:22.542Z,-2.60
2018-03-04T22:23:18.669Z,-2.60
2018-03-04T22:28:06.949Z,-2.60
2018-03-04T22:33:08.201Z,-2.70
2018-03-04T22:42:59.289Z,-2.30
2018-03-04T22:47:47.205Z,-2.00
2018-03-04T22:52:47.350Z,-2.10
2018-03-04T22:57:37.440Z,-1.90
2018-03-04T23:02:33.834Z,-2.00
2018-03-04T23:07:21.910Z,-2.00
2018-03-04T23:12:10.381Z,-2.00
2018-03-04T23:26:55.737Z,-2.10
2018-03-04T23:31:47.846Z,-2.10
2018-03-04T23:36:31.500Z,-2.20
2018-03-04T23:46:13.707Z,-2.50
2018-03-04T23:51:02.909Z,-2.40
